Time;durP1;ratioP1;P1;durP2;ratioP2;P2;SDS_P1;SDS_P2;PMS_P1;PMS_P2;Temp;Humidity;BMP_temperature;BMP_pressure;BME280_temperature;BME280_humidity;BME280_pressure;Samples;Min_cycle;Max_cycle;Signal;HPM_P1;HPM_P2
2023/08/18 00:00:20;;;;;;;5.50;5.00;;;22.40;99.90;;;;;;5035182;28;20221;-72
2023/08/18 00:02:45;;;;;;;8.10;5.50;;;22.40;99.90;;;;;;5035490;28;20562;-69
2023/08/18 00:05:11;;;;;;;6.10;5.50;;;22.30;99.90;;;;;;5036266;28;20163;-69
2023/08/18 00:07:37;;;;;;;6.53;5.70;;;22.30;99.90;;;;;;5035418;28;20224;-71
2023/08/18 00:10:03;;;;;;;5.63;5.13;;;22.30;99.90;;;;;;5035543;28;20662;-71
2023/08/18 00:12:29;;;;;;;5.97;5.47;;;22.30;99.90;;;;;;5035298;28;20191;-70
2023/08/18 00:14:55;;;;;;;6.30;5.70;;;22.30;99.90;;;;;;5034992;28;20437;-71
2023/08/18 00:17:20;;;;;;;5.80;5.20;;;22.30;99.90;;;;;;5035385;28;20444;-71
2023/08/18 00:19:47;;;;;;;8.13;6.00;;;22.10;99.90;;;;;;5035203;28;20414;-70
2023/08/18 00:22:13;;;;;;;5.10;4.60;;;22.10;99.90;;;;;;5034196;28;20207;-70
2023/08/18 00:24:38;;;;;;;7.60;5.90;;;21.90;99.90;;;;;;5035177;28;20911;-71
2023/08/18 00:27:04;;;;;;;6.37;5.00;;;21.70;99.90;;;;;;5035347;28;20410;-70
2023/08/18 00:29:29;;;;;;;4.93;4.53;;;21.70;99.90;;;;;;5034625;28;20193;-71
2023/08/18 00:31:55;;;;;;;6.93;4.83;;;21.90;99.90;;;;;;5035244;28;20222;-71
2023/08/18 00:34:21;;;;;;;5.00;4.60;;;22.00;99.90;;;;;;5035229;28;20171;-72
2023/08/18 00:36:46;;;;;;;5.97;5.30;;;22.20;99.90;;;;;;5035124;28;20233;-71
2023/08/18 00:39:12;;;;;;;4.93;4.43;;;22.20;99.90;;;;;;5034905;28;20244;-70
2023/08/18 00:41:38;;;;;;;7.10;3.77;;;22.00;99.90;;;;;;5034736;28;20265;-71
2023/08/18 00:44:03;;;;;;;5.00;4.60;;;21.90;99.90;;;;;;5034871;28;20547;-72
2023/08/18 00:46:30;;;;;;;5.47;4.63;;;21.80;99.90;;;;;;5034794;28;20176;-72
2023/08/18 00:48:58;;;;;;;6.97;5.00;;;21.60;99.90;;;;;;5034965;28;20176;-72
2023/08/18 00:51:24;;;;;;;5.00;4.57;;;21.60;99.90;;;;;;5034792;28;20409;-72
2023/08/18 00:53:50;;;;;;;6.33;4.57;;;21.50;99.90;;;;;;5034920;28;20430;-71
2023/08/18 00:56:16;;;;;;;6.33;5.00;;;21.40;99.90;;;;;;5035182;28;20218;-71
2023/08/18 00:58:41;;;;;;;5.57;5.03;;;21.40;99.90;;;;;;5034746;28;20652;-71
2023/08/18 01:01:07;;;;;;;7.73;5.30;;;21.40;99.90;;;;;;5034448;28;20178;-71
2023/08/18 01:03:34;;;;;;;7.10;5.40;;;21.30;99.90;;;;;;5034457;28;20681;-71
2023/08/18 01:05:59;;;;;;;8.40;5.33;;;21.30;99.90;;;;;;5034673;28;20171;-71
2023/08/18 01:08:25;;;;;;;6.30;5.23;;;21.30;99.90;;;;;;5034545;28;20424;-71
2023/08/18 01:11:03;;;;;;;5.90;5.30;;;21.40;99.90;;;;;;5033870;28;20630;-71
2023/08/18 01:13:56;;;;;;;6.83;4.90;;;21.30;99.90;;;;;;5034131;28;20187;-71
2023/08/18 01:16:28;;;;;;;7.50;5.77;;;21.30;99.90;;;;;;5034038;28;20485;-71
2023/08/18 01:18:54;;;;;;;5.77;4.53;;;21.20;99.90;;;;;;5033962;28;20893;-71
2023/08/18 01:21:22;;;;;;;6.43;5.40;;;21.20;99.90;;;;;;5034319;28;20398;-71
2023/08/18 01:23:48;;;;;;;8.33;5.60;;;21.20;99.90;;;;;;5033448;28;20444;-71
2023/08/18 01:26:13;;;;;;;5.73;4.57;;;21.10;99.90;;;;;;5033841;28;20402;-70
2023/08/18 01:28:40;;;;;;;7.30;5.43;;;21.10;99.90;;;;;;5033813;28;20414;-71
2023/08/18 01:31:15;;;;;;;6.70;6.10;;;21.20;99.90;;;;;;5033622;28;20163;-71
2023/08/18 01:33:43;;;;;;;7.03;5.87;;;21.20;99.90;;;;;;5033726;28;20410;-71
2023/08/18 01:36:15;;;;;;;6.00;5.20;;;21.30;99.90;;;;;;5034000;28;20430;-72
2023/08/18 01:38:44;;;;;;;6.50;5.23;;;21.30;99.90;;;;;;5033772;28;20390;-70
2023/08/18 01:41:12;;;;;;;6.67;5.67;;;21.20;99.90;;;;;;5034008;28;20490;-71
2023/08/18 01:43:38;;;;;;;7.07;5.47;;;21.10;99.90;;;;;;5033402;28;20426;-71
2023/08/18 01:46:03;;;;;;;6.07;5.43;;;21.10;99.90;;;;;;5033491;28;20854;-71
2023/08/18 01:48:29;;;;;;;5.70;5.13;;;21.10;99.90;;;;;;5033695;28;20282;-70
2023/08/18 01:50:55;;;;;;;5.93;5.47;;;20.90;99.90;;;;;;5032381;28;20235;-71
2023/08/18 01:53:20;;;;;;;5.67;5.07;;;20.70;99.90;;;;;;5033525;28;20242;-72
2023/08/18 01:55:46;;;;;;;6.83;4.40;;;20.60;99.90;;;;;;5033498;28;20221;-70
2023/08/18 01:58:13;;;;;;;5.73;5.00;;;20.70;99.90;;;;;;5033436;28;20270;-72
2023/08/18 02:00:38;;;;;;;5.63;5.00;;;20.90;99.90;;;;;;5033183;28;20195;-70
2023/08/18 02:03:04;;;;;;;6.80;5.37;;;20.90;99.90;;;;;;5033281;28;20460;-70
2023/08/18 02:05:30;;;;;;;5.90;5.20;;;20.90;99.90;;;;;;5033283;28;20250;-70
2023/08/18 02:07:57;;;;;;;6.13;5.17;;;20.90;99.90;;;;;;5033189;28;20171;-71
2023/08/18 02:10:23;;;;;;;8.60;5.33;;;20.90;99.90;;;;;;5033466;28;20167;-71
2023/08/18 02:12:48;;;;;;;5.60;5.10;;;21.00;99.90;;;;;;5031833;28;20433;-71
2023/08/18 02:15:14;;;;;;;5.87;4.93;;;21.10;99.90;;;;;;5032487;28;20676;-71
2023/08/18 02:17:39;;;;;;;5.83;5.03;;;21.10;99.90;;;;;;5032860;28;20650;-72
2023/08/18 02:20:08;;;;;;;5.93;5.30;;;21.10;99.90;;;;;;5033558;28;20163;-70
2023/08/18 02:22:34;;;;;;;5.40;4.90;;;21.10;99.90;;;;;;5032823;28;20273;-70
2023/08/18 02:24:59;;;;;;;5.43;4.93;;;21.10;99.90;;;;;;5033398;28;20437;-70
2023/08/18 02:27:25;;;;;;;5.83;4.03;;;21.10;99.90;;;;;;5032765;28;20175;-71
2023/08/18 02:29:52;;;;;;;5.33;4.80;;;21.10;99.90;;;;;;5032296;28;20538;-70
2023/08/18 02:32:18;;;;;;;7.60;4.93;;;21.10;99.90;;;;;;5032677;28;20191;-71
2023/08/18 02:34:45;;;;;;;8.20;4.80;;;21.10;99.90;;;;;;5032913;28;20497;-71
2023/08/18 02:37:11;;;;;;;5.83;4.50;;;21.10;99.90;;;;;;5032805;28;20450;-71
2023/08/18 02:39:37;;;;;;;4.63;4.23;;;21.10;99.90;;;;;;5032667;28;20421;-71
2023/08/18 02:42:03;;;;;;;4.73;4.33;;;21.10;99.90;;;;;;5032680;28;20880;-71
2023/08/18 02:44:28;;;;;;;6.00;4.40;;;21.10;99.90;;;;;;5032409;28;20413;-71
2023/08/18 02:46:54;;;;;;;4.13;3.73;;;21.10;99.90;;;;;;5032281;28;20164;-71
2023/08/18 02:49:20;;;;;;;5.73;4.60;;;21.10;99.90;;;;;;5032616;28;20175;-71
2023/08/18 02:51:45;;;;;;;6.47;4.50;;;21.00;99.90;;;;;;5032512;28;20221;-71
2023/08/18 02:54:11;;;;;;;7.50;5.27;;;21.00;99.90;;;;;;5032392;28;20654;-71
2023/08/18 02:56:37;;;;;;;7.10;5.13;;;21.00;99.90;;;;;;5032355;28;20669;-71
2023/08/18 02:59:02;;;;;;;6.20;4.40;;;20.80;99.90;;;;;;5032337;28;20167;-70
2023/08/18 03:01:28;;;;;;;4.60;3.93;;;20.80;99.90;;;;;;5032018;28;20405;-70
2023/08/18 03:03:53;;;;;;;5.50;4.43;;;20.70;99.90;;;;;;5032313;28;20638;-70
2023/08/18 03:06:19;;;;;;;4.97;4.07;;;20.70;99.90;;;;;;5032762;28;20186;-71
2023/08/18 03:08:45;;;;;;;4.80;4.07;;;20.70;99.90;;;;;;5032413;28;20172;-70
2023/08/18 03:11:11;;;;;;;5.00;4.07;;;20.70;99.90;;;;;;5032378;28;20638;-71
2023/08/18 03:13:36;;;;;;;6.80;4.90;;;20.70;99.90;;;;;;5032489;28;20455;-71
2023/08/18 03:16:04;;;;;;;6.63;4.10;;;20.70;99.90;;;;;;5031706;28;20171;-71
2023/08/18 03:18:30;;;;;;;5.33;3.77;;;20.70;99.90;;;;;;5032371;28;20692;-70
2023/08/18 03:21:00;;;;;;;6.53;4.07;;;20.70;99.90;;;;;;5032307;28;20402;-71
2023/08/18 03:23:26;;;;;;;5.60;4.57;;;20.70;99.90;;;;;;5032209;28;20202;-70
2023/08/18 03:25:57;;;;;;;5.90;4.60;;;20.60;99.90;;;;;;5032192;28;20417;-70
2023/08/18 03:28:23;;;;;;;5.10;4.20;;;20.50;99.90;;;;;;5032329;28;20171;-70
2023/08/18 03:30:48;;;;;;;6.17;5.23;;;20.50;99.90;;;;;;5031760;28;20405;-70
2023/08/18 03:33:14;;;;;;;4.37;4.00;;;20.40;99.90;;;;;;5032979;28;20211;-70
2023/08/18 03:35:39;;;;;;;6.17;4.43;;;20.30;99.90;;;;;;5036052;28;20164;-70
2023/08/18 03:38:05;;;;;;;5.10;4.60;;;20.20;99.90;;;;;;5036196;28;20302;-70
2023/08/18 03:40:31;;;;;;;6.70;4.53;;;20.20;99.90;;;;;;5036132;28;20167;-70
2023/08/18 03:42:57;;;;;;;5.87;4.37;;;20.20;99.90;;;;;;5035979;28;20187;-70
2023/08/18 03:45:23;;;;;;;8.33;4.10;;;20.20;99.90;;;;;;5035372;28;20500;-70
2023/08/18 03:47:49;;;;;;;8.17;4.93;;;20.10;99.90;;;;;;5035879;28;20202;-70
2023/08/18 03:50:15;;;;;;;9.17;5.70;;;20.00;99.90;;;;;;5035792;28;20403;-70
2023/08/18 03:52:41;;;;;;;5.63;4.73;;;19.90;99.90;;;;;;5035801;28;20432;-70
2023/08/18 03:55:06;;;;;;;6.20;5.60;;;19.80;99.90;;;;;;5035894;28;20265;-71
2023/08/18 03:57:32;;;;;;;6.00;4.57;;;19.70;99.90;;;;;;5035631;28;20194;-70
2023/08/18 03:59:57;;;;;;;6.77;4.97;;;19.80;99.90;;;;;;5035141;28;20171;-70
2023/08/18 04:02:23;;;;;;;6.97;5.80;;;19.80;99.90;;;;;;5035779;28;20199;-71
2023/08/18 04:04:49;;;;;;;6.90;4.87;;;19.70;99.90;;;;;;5035702;28;20171;-70
2023/08/18 04:07:14;;;;;;;7.67;4.80;;;19.70;99.90;;;;;;5035516;28;20197;-71
2023/08/18 04:09:40;;;;;;;5.47;4.97;;;19.70;99.90;;;;;;5035494;28;20642;-70
2023/08/18 04:12:06;;;;;;;5.90;5.33;;;19.70;99.90;;;;;;5035359;28;20650;-71
2023/08/18 04:14:32;;;;;;;6.53;4.30;;;19.50;99.90;;;;;;5034989;28;20737;-70
2023/08/18 04:16:57;;;;;;;5.73;5.20;;;19.60;99.90;;;;;;5035025;28;20532;-70
2023/08/18 04:19:23;;;;;;;7.17;5.10;;;19.60;99.90;;;;;;5035278;28;20206;-70
2023/08/18 04:21:48;;;;;;;5.53;4.83;;;19.60;99.90;;;;;;5035288;28;20257;-70
2023/08/18 04:24:14;;;;;;;6.50;4.73;;;19.50;99.90;;;;;;5035165;28;20166;-70
2023/08/18 04:26:40;;;;;;;8.63;5.10;;;19.50;99.90;;;;;;5034354;28;20175;-70
2023/08/18 04:29:06;;;;;;;5.53;4.83;;;19.60;99.90;;;;;;5034948;28;20163;-71
2023/08/18 04:31:31;;;;;;;6.17;5.17;;;19.50;99.90;;;;;;5034797;28;20925;-71
2023/08/18 04:33:58;;;;;;;13.73;5.03;;;19.50;99.90;;;;;;5035141;28;20182;-70
2023/08/18 04:36:24;;;;;;;5.20;4.70;;;19.40;99.90;;;;;;5034972;28;20537;-71
2023/08/18 04:38:49;;;;;;;7.40;5.00;;;19.40;99.90;;;;;;5035063;28;20409;-71
2023/08/18 04:41:15;;;;;;;5.07;4.33;;;19.40;99.90;;;;;;5035354;28;20172;-71
2023/08/18 04:43:41;;;;;;;7.00;5.53;;;19.40;99.90;;;;;;5034847;28;20198;-70
2023/08/18 04:46:06;;;;;;;5.53;4.60;;;19.40;99.90;;;;;;5034562;28;20171;-71
2023/08/18 04:48:32;;;;;;;6.10;4.70;;;19.40;99.90;;;;;;5034728;28;20395;-71
2023/08/18 04:50:58;;;;;;;7.10;5.10;;;19.40;99.90;;;;;;5034754;28;20198;-71
2023/08/18 04:53:24;;;;;;;5.77;4.80;;;19.50;99.90;;;;;;5034512;28;20422;-70
2023/08/18 04:55:49;;;;;;;6.20;4.20;;;19.50;99.90;;;;;;5035461;28;20175;-70
2023/08/18 04:58:15;;;;;;;6.20;4.37;;;19.50;99.90;;;;;;5034497;28;20198;-70
2023/08/18 05:00:44;;;;;;;5.30;4.53;;;19.70;99.90;;;;;;5034320;28;20168;-70
2023/08/18 05:03:10;;;;;;;5.67;4.63;;;19.70;99.90;;;;;;5034482;28;20662;-71
2023/08/18 05:05:56;;;;;;;6.60;5.00;;;19.70;99.90;;;;;;5034579;28;20774;-71
2023/08/18 05:08:21;;;;;;;5.83;4.93;;;19.60;99.90;;;;;;5034253;28;20394;-70
2023/08/18 05:10:47;;;;;;;5.40;4.90;;;19.70;99.90;;;;;;5034172;28;20410;-70
2023/08/18 05:13:12;;;;;;;5.87;4.97;;;19.70;99.90;;;;;;5034806;28;20196;-71
2023/08/18 05:15:38;;;;;;;5.37;4.80;;;19.70;99.90;;;;;;5033731;28;20183;-71
2023/08/18 05:18:04;;;;;;;6.13;4.80;;;19.90;99.90;;;;;;5032604;28;20639;-71
2023/08/18 05:20:29;;;;;;;7.67;5.10;;;19.90;99.90;;;;;;5034088;28;20694;-70
2023/08/18 05:22:55;;;;;;;6.63;5.43;;;19.90;99.90;;;;;;5034019;28;20349;-70
2023/08/18 05:25:21;;;;;;;6.20;4.97;;;19.80;99.90;;;;;;5033990;28;20171;-71
2023/08/18 05:27:47;;;;;;;6.47;4.90;;;19.80;99.90;;;;;;5034141;28;20171;-71
2023/08/18 05:30:13;;;;;;;4.80;4.40;;;19.80;99.90;;;;;;5032752;28;20414;-70
2023/08/18 05:32:39;;;;;;;7.87;4.60;;;19.90;99.90;;;;;;5033896;28;20509;-71
2023/08/18 05:35:05;;;;;;;5.60;4.40;;;20.00;99.90;;;;;;5034040;28;20410;-71
2023/08/18 05:37:30;;;;;;;5.10;4.30;;;20.00;99.90;;;;;;5033668;28;20684;-70
2023/08/18 05:39:56;;;;;;;6.50;4.93;;;20.00;99.90;;;;;;5033788;28;20409;-71
2023/08/18 05:42:22;;;;;;;3.97;3.67;;;20.10;99.90;;;;;;5033829;28;20672;-70
2023/08/18 05:44:47;;;;;;;4.63;3.93;;;20.20;99.90;;;;;;5033354;28;20225;-71
2023/08/18 05:47:13;;;;;;;5.23;4.53;;;20.30;99.90;;;;;;5033273;28;20198;-71
2023/08/18 05:49:38;;;;;;;4.70;4.00;;;20.30;99.90;;;;;;5033499;28;20256;-71
2023/08/18 05:52:04;;;;;;;5.83;3.80;;;20.40;99.90;;;;;;5033321;28;20183;-71
2023/08/18 05:54:30;;;;;;;4.73;3.83;;;20.60;99.90;;;;;;5033402;28;20175;-71
2023/08/18 05:56:55;;;;;;;7.30;3.50;;;20.70;99.90;;;;;;5033142;28;20210;-71
2023/08/18 05:59:21;;;;;;;4.87;4.33;;;20.80;99.90;;;;;;5033125;28;20658;-70
2023/08/18 06:01:46;;;;;;;4.53;4.13;;;20.90;99.90;;;;;;5033263;28;20849;-71
2023/08/18 06:04:12;;;;;;;4.93;4.53;;;21.00;99.90;;;;;;5033244;28;20171;-71
2023/08/18 06:06:38;;;;;;;6.40;4.20;;;21.10;99.90;;;;;;5031754;28;20266;-71
2023/08/18 06:09:04;;;;;;;4.83;3.67;;;21.20;99.90;;;;;;5033245;28;20186;-71
2023/08/18 06:11:29;;;;;;;4.73;4.33;;;21.40;99.90;;;;;;5033070;28;20217;-71
2023/08/18 06:13:55;;;;;;;6.73;4.00;;;21.50;99.90;;;;;;5032978;28;20934;-71
2023/08/18 06:16:20;;;;;;;9.30;4.03;;;21.50;99.90;;;;;;5032545;28;20175;-71
2023/08/18 06:18:46;;;;;;;4.73;3.73;;;21.60;99.90;;;;;;5032639;28;20218;-70
2023/08/18 06:21:11;;;;;;;6.13;4.47;;;21.80;99.90;;;;;;5033053;28;20175;-71
2023/08/18 06:23:37;;;;;;;7.03;4.33;;;21.90;99.90;;;;;;5031314;28;20236;-71
2023/08/18 06:26:02;;;;;;;5.03;4.07;;;22.00;99.90;;;;;;5032931;28;20666;-71
2023/08/18 06:28:28;;;;;;;4.40;3.77;;;22.00;99.90;;;;;;5032800;28;20175;-71
2023/08/18 06:31:03;;;;;;;6.27;5.07;;;22.10;99.90;;;;;;5032570;28;20175;-71
2023/08/18 06:33:28;;;;;;;7.83;4.63;;;22.10;99.90;;;;;;5032705;28;20197;-71
2023/08/18 06:35:54;;;;;;;5.10;4.60;;;22.20;99.90;;;;;;5032696;28;20513;-70
2023/08/18 06:38:19;;;;;;;4.80;4.40;;;22.20;99.90;;;;;;5032745;28;20207;-73
2023/08/18 06:40:45;;;;;;;5.53;5.03;;;22.30;99.90;;;;;;5032922;28;20550;-70
2023/08/18 06:43:10;;;;;;;6.47;5.10;;;22.40;99.90;;;;;;5032559;28;20191;-70
2023/08/18 06:45:36;;;;;;;5.77;5.20;;;22.40;99.90;;;;;;5031982;28;20271;-70
2023/08/18 06:48:02;;;;;;;7.47;5.03;;;22.40;99.90;;;;;;5032942;28;20171;-70
2023/08/18 06:50:28;;;;;;;6.40;5.20;;;22.50;99.90;;;;;;5032756;28;20179;-70
2023/08/18 06:52:53;;;;;;;10.47;6.00;;;22.70;99.90;;;;;;5032314;28;20460;-70
2023/08/18 06:55:19;;;;;;;10.73;5.07;;;22.70;99.90;;;;;;5032605;28;20168;-71
2023/08/18 06:57:45;;;;;;;5.50;4.67;;;22.80;99.90;;;;;;5032490;28;20199;-70
2023/08/18 07:00:11;;;;;;;6.07;5.50;;;22.90;99.90;;;;;;5031988;28;20657;-69
2023/08/18 07:02:37;;;;;;;7.20;5.70;;;23.10;99.90;;;;;;5032110;28;20422;-70
2023/08/18 07:05:05;;;;;;;6.20;5.60;;;23.20;99.90;;;;;;5032321;28;20402;-71
2023/08/18 07:07:32;;;;;;;11.93;5.30;;;23.30;99.90;;;;;;5032591;28;20186;-71
2023/08/18 07:09:58;;;;;;;6.93;5.40;;;23.50;99.90;;;;;;5036171;28;20422;-70
2023/08/18 07:12:23;;;;;;;7.23;4.63;;;23.60;99.90;;;;;;5036629;28;20472;-71
2023/08/18 07:14:49;;;;;;;7.20;4.70;;;23.70;99.90;;;;;;5036673;28;20258;-71
2023/08/18 07:17:15;;;;;;;3.53;3.23;;;23.70;99.90;;;;;;5036247;28;20226;-71
2023/08/18 07:19:40;;;;;;;4.53;4.13;;;23.60;99.90;;;;;;5036610;28;20175;-71
2023/08/18 07:22:06;;;;;;;5.13;4.20;;;23.60;99.90;;;;;;5036184;28;20226;-70
2023/08/18 07:24:32;;;;;;;4.10;3.50;;;23.70;99.90;;;;;;5036608;28;20171;-70
2023/08/18 07:26:57;;;;;;;4.27;3.50;;;23.80;99.90;;;;;;5036538;28;20634;-70
2023/08/18 07:29:23;;;;;;;3.90;3.50;;;24.00;99.90;;;;;;5036413;28;20472;-71
2023/08/18 07:31:49;;;;;;;6.50;3.00;;;24.10;99.90;;;;;;5035686;28;20219;-70
2023/08/18 07:34:14;;;;;;;6.40;4.13;;;24.30;99.90;;;;;;5035883;28;20638;-70
2023/08/18 07:36:40;;;;;;;5.70;3.30;;;24.40;99.90;;;;;;5034813;28;20284;-70
2023/08/18 07:39:10;;;;;;;4.60;3.80;;;24.10;99.90;;;;;;5036206;28;20178;-71
2023/08/18 07:41:37;;;;;;;4.87;3.40;;;24.10;99.90;;;;;;5036204;28;20242;-70
2023/08/18 07:44:03;;;;;;;5.13;3.13;;;24.20;99.90;;;;;;5035997;28;20467;-70
2023/08/18 07:46:30;;;;;;;3.50;3.20;;;24.20;99.90;;;;;;5035456;28;20417;-71
2023/08/18 07:48:56;;;;;;;4.67;3.00;;;24.20;99.90;;;;;;5036145;28;20179;-71
2023/08/18 07:51:21;;;;;;;6.20;3.43;;;24.30;99.90;;;;;;5035817;28;20410;-71
2023/08/18 07:53:47;;;;;;;5.10;3.10;;;24.40;99.90;;;;;;5035772;28;20661;-70
2023/08/18 07:56:12;;;;;;;7.90;3.37;;;24.60;99.90;;;;;;5035958;28;20160;-71
2023/08/18 07:58:38;;;;;;;4.53;3.10;;;24.60;99.90;;;;;;5035493;28;20190;-70
2023/08/18 08:01:03;;;;;;;5.77;3.20;;;24.70;99.90;;;;;;5035274;28;20180;-70
2023/08/18 08:03:29;;;;;;;5.90;2.57;;;25.00;99.90;;;;;;5035541;28;20267;-70
2023/08/18 08:05:55;;;;;;;5.17;2.77;;;25.20;99.90;;;;;;5035873;28;20175;-70
2023/08/18 08:08:21;;;;;;;3.03;2.77;;;25.00;99.90;;;;;;5035632;28;20535;-71
2023/08/18 08:10:46;;;;;;;3.67;2.73;;;25.10;99.90;;;;;;5035478;28;20163;-69
2023/08/18 08:13:12;;;;;;;2.83;2.50;;;25.20;99.90;;;;;;5035402;28;20187;-70
2023/08/18 08:15:37;;;;;;;4.07;2.60;;;25.20;99.90;;;;;;5033238;28;20222;-70
2023/08/18 08:18:03;;;;;;;5.30;2.50;;;25.20;99.90;;;;;;5035653;28;20203;-71
2023/08/18 08:20:29;;;;;;;2.80;2.60;;;25.40;99.90;;;;;;5035015;28;20254;-71
2023/08/18 08:22:54;;;;;;;4.73;2.90;;;25.50;99.90;;;;;;5050251;22;20228;-71
2023/08/18 08:25:20;;;;;;;5.50;2.87;;;25.60;99.90;;;;;;5030555;28;20258;-71
2023/08/18 08:27:49;;;;;;;3.00;2.70;;;25.40;99.90;;;;;;5015537;28;20183;-71
2023/08/18 08:30:15;;;;;;;2.83;2.40;;;25.40;99.90;;;;;;5031970;28;20206;-71
2023/08/18 08:32:40;;;;;;;4.10;2.27;;;25.60;99.90;;;;;;5034707;28;20433;-72
2023/08/18 08:35:06;;;;;;;4.03;2.50;;;25.60;99.90;;;;;;5034832;28;20229;-72
2023/08/18 08:37:32;;;;;;;4.60;3.00;;;25.60;99.90;;;;;;5035616;28;20183;-71
2023/08/18 08:39:57;;;;;;;6.17;2.53;;;25.70;99.90;;;;;;5020819;28;20408;-71
2023/08/18 08:42:23;;;;;;;4.37;2.93;;;25.80;99.90;;;;;;5015628;28;20180;-71
2023/08/18 08:44:49;;;;;;;3.20;2.33;;;26.00;99.90;;;;;;5015630;28;20176;-71
2023/08/18 08:47:17;;;;;;;4.67;2.60;;;26.20;99.90;;;;;;5014654;28;20171;-71
2023/08/18 08:49:44;;;;;;;3.13;2.57;;;26.10;99.90;;;;;;5027256;28;20409;-70
2023/08/18 08:52:13;;;;;;;3.50;2.70;;;26.40;99.90;;;;;;5034830;28;20429;-70
2023/08/18 08:54:53;;;;;;;2.97;2.37;;;26.50;99.90;;;;;;5035193;28;20417;-71
2023/08/18 08:57:23;;;;;;;4.47;2.20;;;26.50;99.90;;;;;;5034986;28;20432;-72
2023/08/18 08:59:49;;;;;;;4.07;2.03;;;26.40;99.90;;;;;;5022026;28;20403;-71
2023/08/18 09:02:15;;;;;;;2.10;1.90;;;26.50;99.90;;;;;;5014227;28;20450;-72
2023/08/18 09:04:40;;;;;;;4.50;2.57;;;26.60;99.90;;;;;;5015167;28;20407;-72
2023/08/18 09:07:09;;;;;;;4.43;2.10;;;26.80;99.90;;;;;;5013700;28;20175;-71
2023/08/18 09:09:35;;;;;;;3.90;2.70;;;26.90;99.90;;;;;;5025710;28;20171;-71
2023/08/18 09:12:05;;;;;;;3.87;2.50;;;27.00;99.90;;;;;;5034498;28;20398;-72
2023/08/18 09:14:42;;;;;;;2.93;2.63;;;27.10;99.90;;;;;;5034639;28;20164;-71
2023/08/18 09:17:08;;;;;;;5.80;2.30;;;27.00;99.90;;;;;;4994455;28;20434;-70
2023/08/18 09:19:34;;;;;;;2.20;2.00;;;27.20;99.90;;;;;;5015534;28;20764;-71
2023/08/18 09:22:02;;;;;;;2.53;1.93;;;27.20;99.90;;;;;;5034116;28;20493;-71
2023/08/18 09:24:29;;;;;;;3.57;2.20;;;27.40;99.90;;;;;;5034590;28;20151;-71
2023/08/18 09:27:05;;;;;;;2.93;1.87;;;27.40;99.90;;;;;;5034192;28;20467;-70
2023/08/18 09:29:32;;;;;;;4.33;2.30;;;27.40;99.90;;;;;;5022291;28;20403;-70
2023/08/18 09:31:57;;;;;;;5.47;2.27;;;27.40;99.90;;;;;;5013005;28;20809;-72
2023/08/18 09:34:24;;;;;;;3.30;2.10;;;27.50;99.90;;;;;;5014224;28;20494;-71
2023/08/18 09:36:56;;;;;;;3.60;1.87;;;27.70;99.90;;;;;;5014391;28;20562;-72
2023/08/18 09:39:22;;;;;;;3.87;2.10;;;27.90;99.90;;;;;;5032281;28;20429;-70
2023/08/18 09:41:52;;;;;;;3.40;1.90;;;28.00;99.80;;;;;;5033996;28;20398;-70
2023/08/18 09:44:19;;;;;;;3.10;2.47;;;28.00;99.90;;;;;;5033932;28;20176;-71
2023/08/18 09:46:57;;;;;;;2.90;2.20;;;28.10;99.90;;;;;;5015677;28;20446;-72
2023/08/18 09:49:25;;;;;;;2.50;1.97;;;28.20;99.10;;;;;;5031452;28;20444;-72
2023/08/18 09:52:11;;;;;;;3.00;2.20;;;28.40;99.10;;;;;;5034067;28;20446;-71
2023/08/18 09:54:43;;;;;;;3.53;2.17;;;28.40;99.10;;;;;;5033253;28;20418;-72
2023/08/18 09:57:16;;;;;;;3.83;2.30;;;28.40;98.50;;;;;;5033274;28;20430;-71
2023/08/18 09:59:43;;;;;;;3.60;2.20;;;28.40;98.30;;;;;;5014193;28;20441;-71
2023/08/18 10:02:17;;;;;;;3.30;2.40;;;28.40;98.70;;;;;;5013342;28;20419;-71
2023/08/18 10:04:43;;;;;;;2.30;1.83;;;28.50;98.50;;;;;;5014132;28;20791;-71
2023/08/18 10:07:10;;;;;;;3.43;2.30;;;28.60;97.90;;;;;;5013801;28;20445;-70
2023/08/18 10:09:36;;;;;;;5.30;2.27;;;28.60;98.10;;;;;;5015541;28;20176;-72
2023/08/18 10:12:02;;;;;;;2.30;2.10;;;28.70;98.10;;;;;;5013603;28;20498;-72
2023/08/18 10:14:30;;;;;;;7.50;2.63;;;28.90;97.90;;;;;;5014163;28;20544;-72
2023/08/18 10:16:57;;;;;;;4.50;2.27;;;28.90;97.80;;;;;;5013076;28;20446;-70
2023/08/18 10:19:49;;;;;;;6.60;2.50;;;29.20;97.80;;;;;;5031884;28;20481;-70
2023/08/18 10:22:20;;;;;;;2.00;1.80;;;29.30;97.50;;;;;;5033333;28;20450;-72
2023/08/18 10:24:49;;;;;;;4.70;1.70;;;29.40;97.60;;;;;;5033041;28;20438;-71
2023/08/18 10:27:27;;;;;;;2.30;1.97;;;29.50;96.20;;;;;;5032288;28;20931;-71
2023/08/18 10:29:57;;;;;;;2.23;1.53;;;29.50;96.30;;;;;;5013345;28;20407;-71
2023/08/18 10:32:23;;;;;;;6.13;2.73;;;29.60;96.20;;;;;;5013310;28;20786;-71
2023/08/18 10:34:50;;;;;;;3.67;2.27;;;29.60;95.70;;;;;;5013784;28;20878;-71
2023/08/18 10:37:19;;;;;;;4.27;2.13;;;29.70;96.80;;;;;;5014204;28;20454;-71
2023/08/18 10:39:45;;;;;;;3.50;2.33;;;29.70;95.60;;;;;;5032975;28;20811;-71
2023/08/18 10:42:15;;;;;;;2.50;1.70;;;29.80;95.90;;;;;;5032914;28;20418;-71
2023/08/18 10:45:21;;;;;;;3.47;1.80;;;29.80;96.00;;;;;;5031360;28;20195;-72
2023/08/18 10:47:46;;;;;;;3.27;1.70;;;29.90;95.80;;;;;;5017400;28;20429;-71
2023/08/18 10:50:14;;;;;;;2.63;2.10;;;30.00;95.70;;;;;;5032889;28;20414;-71
2023/08/18 10:52:40;;;;;;;3.43;1.80;;;30.20;94.90;;;;;;5032968;28;20566;-72
2023/08/18 10:55:07;;;;;;;3.87;2.00;;;30.50;94.60;;;;;;5033045;28;20406;-72
2023/08/18 10:57:37;;;;;;;3.40;1.70;;;31.20;94.50;;;;;;5030170;28;20511;-71
2023/08/18 11:00:11;;;;;;;3.90;1.73;;;32.00;92.80;;;;;;5013521;28;20387;-72
2023/08/18 11:02:37;;;;;;;4.57;2.10;;;32.70;90.00;;;;;;5012499;28;20871;-73
2023/08/18 11:05:04;;;;;;;4.03;2.00;;;34.20;84.90;;;;;;5013229;28;20916;-71
2023/08/18 11:07:30;;;;;;;2.37;1.83;;;36.20;76.90;;;;;;5015229;28;20947;-72
2023/08/18 11:09:56;;;;;;;4.00;1.87;;;35.90;73.30;;;;;;5032669;28;20497;-72
2023/08/18 11:12:22;;;;;;;3.17;2.07;;;36.80;69.30;;;;;;5032355;28;20947;-71
2023/08/18 11:14:48;;;;;;;3.97;2.13;;;37.60;66.80;;;;;;5030332;28;20638;-71
2023/08/18 11:17:14;;;;;;;4.90;1.83;;;37.90;61.80;;;;;;5012153;28;20458;-71
2023/08/18 11:19:39;;;;;;;1.80;1.57;;;38.10;59.80;;;;;;5032308;28;20653;-72
2023/08/18 11:22:05;;;;;;;2.00;1.60;;;39.60;54.60;;;;;;5032479;28;20289;-72
2023/08/18 11:24:31;;;;;;;5.60;1.60;;;39.60;53.90;;;;;;5032971;28;20199;-72
2023/08/18 11:26:56;;;;;;;2.63;1.80;;;40.30;52.00;;;;;;5032421;28;20168;-72
2023/08/18 11:29:22;;;;;;;2.67;1.60;;;40.40;53.00;;;;;;5015636;28;20183;-72
2023/08/18 11:31:51;;;;;;;2.90;1.93;;;38.50;55.00;;;;;;5012236;28;20168;-71
2023/08/18 11:34:16;;;;;;;2.10;1.60;;;37.90;55.50;;;;;;5013027;28;20172;-72
2023/08/18 11:36:44;;;;;;;2.40;2.20;;;38.30;55.50;;;;;;5015387;28;20417;-72
2023/08/18 11:39:11;;;;;;;2.10;1.63;;;39.50;54.00;;;;;;5027981;28;20175;-71
2023/08/18 11:41:37;;;;;;;2.77;2.03;;;40.40;52.10;;;;;;5032397;28;20399;-71
2023/08/18 11:44:04;;;;;;;4.23;2.10;;;41.50;51.30;;;;;;5032407;28;20432;-72
2023/08/18 11:46:30;;;;;;;2.50;1.97;;;40.10;52.30;;;;;;5018812;28;20586;-72
2023/08/18 11:48:58;;;;;;;2.83;1.67;;;40.30;50.90;;;;;;5025551;28;20988;-72
2023/08/18 11:51:23;;;;;;;2.90;2.30;;;40.10;49.50;;;;;;5032517;28;20405;-72
2023/08/18 11:53:49;;;;;;;3.87;2.13;;;38.80;51.80;;;;;;5032414;28;20958;-72
2023/08/18 11:56:15;;;;;;;6.03;1.77;;;38.30;52.80;;;;;;5036304;28;20175;-72
2023/08/18 11:58:40;;;;;;;4.20;2.07;;;38.30;53.90;;;;;;5025331;28;20192;-72
2023/08/18 12:01:08;;;;;;;5.50;2.37;;;38.50;53.50;;;;;;5014798;28;20274;-72
2023/08/18 12:03:34;;;;;;;3.40;1.83;;;40.00;52.10;;;;;;5016113;28;20199;-72
2023/08/18 12:06:01;;;;;;;2.30;1.70;;;40.70;49.00;;;;;;5016141;28;20438;-71
2023/08/18 12:08:27;;;;;;;4.33;2.10;;;40.60;50.00;;;;;;5024790;28;20617;-71
2023/08/18 12:10:53;;;;;;;2.80;1.93;;;40.30;48.70;;;;;;5024856;28;20414;-73
2023/08/18 12:13:20;;;;;;;2.17;1.97;;;41.00;49.10;;;;;;5015935;28;20999;-72
2023/08/18 12:15:46;;;;;;;3.10;1.90;;;42.00;46.00;;;;;;5025093;28;20414;-72
2023/08/18 12:18:12;;;;;;;4.87;2.07;;;42.70;44.30;;;;;;5022296;28;20491;-71
2023/08/18 12:20:37;;;;;;;2.80;1.60;;;42.50;45.50;;;;;;5035832;28;20398;-72
2023/08/18 12:23:03;;;;;;;4.03;2.00;;;41.60;46.50;;;;;;5035249;28;20260;-72
2023/08/18 12:25:30;;;;;;;2.63;1.83;;;42.20;44.80;;;;;;5035553;28;20203;-71
2023/08/18 12:27:56;;;;;;;2.87;2.10;;;41.20;46.80;;;;;;5031266;28;20175;-72
2023/08/18 12:30:21;;;;;;;2.27;1.60;;;40.80;46.40;;;;;;5015658;28;20842;-72
2023/08/18 12:32:50;;;;;;;3.40;1.80;;;40.70;47.50;;;;;;5015265;28;20705;-72
2023/08/18 12:35:15;;;;;;;3.13;2.23;;;40.70;47.00;;;;;;5015606;28;20191;-72
2023/08/18 12:37:42;;;;;;;5.47;1.80;;;41.30;46.00;;;;;;5017813;28;20437;-72
2023/08/18 12:40:11;;;;;;;2.40;1.57;;;41.80;46.70;;;;;;5035627;28;20546;-72
2023/08/18 12:42:40;;;;;;;3.77;2.10;;;42.30;43.90;;;;;;5034938;28;20421;-72